sensor_id;sensor_type;location;lat;lon;timestamp;P1;durP1;ratioP1;P2;durP2;ratioP2
82030;SDS011;71592;52.178;4.512;2024-01-30T00:01:00;11.32;;;8.55;;
82030;SDS011;71592;52.178;4.512;2024-01-30T00:03:25;12.73;;;8.15;;
82030;SDS011;71592;52.178;4.512;2024-01-30T00:05:51;13.85;;;8.35;;
82030;SDS011;71592;52.178;4.512;2024-01-30T00:08:16;14.63;;;8.80;;
82030;SDS011;71592;52.178;4.512;2024-01-30T00:10:41;12.15;;;8.57;;
82030;SDS011;71592;52.178;4.512;2024-01-30T00:13:06;14.33;;;8.77;;
82030;SDS011;71592;52.178;4.512;2024-01-30T00:15:32;15.47;;;8.20;;
82030;SDS011;71592;52.178;4.512;2024-01-30T00:17:57;14.82;;;8.63;;
82030;SDS011;71592;52.178;4.512;2024-01-30T00:20:22;11.67;;;7.97;;
82030;SDS011;71592;52.178;4.512;2024-01-30T00:22:48;11.17;;;7.80;;
82030;SDS011;71592;52.178;4.512;2024-01-30T00:25:16;14.32;;;8.10;;
82030;SDS011;71592;52.178;4.512;2024-01-30T00:27:41;15.57;;;8.27;;
82030;SDS011;71592;52.178;4.512;2024-01-30T00:30:07;11.67;;;7.93;;
82030;SDS011;71592;52.178;4.512;2024-01-30T00:32:32;12.50;;;7.43;;
82030;SDS011;71592;52.178;4.512;2024-01-30T00:34:57;13.13;;;7.70;;
82030;SDS011;71592;52.178;4.512;2024-01-30T00:37:23;13.10;;;8.17;;
82030;SDS011;71592;52.178;4.512;2024-01-30T00:39:51;14.88;;;8.93;;
82030;SDS011;71592;52.178;4.512;2024-01-30T00:42:16;14.77;;;8.43;;
82030;SDS011;71592;52.178;4.512;2024-01-30T00:44:41;13.07;;;7.77;;
82030;SDS011;71592;52.178;4.512;2024-01-30T00:47:07;14.67;;;7.87;;
82030;SDS011;71592;52.178;4.512;2024-01-30T00:49:32;13.45;;;7.47;;
82030;SDS011;71592;52.178;4.512;2024-01-30T00:51:57;13.15;;;8.45;;
82030;SDS011;71592;52.178;4.512;2024-01-30T00:54:23;12.30;;;8.40;;
82030;SDS011;71592;52.178;4.512;2024-01-30T00:56:48;11.83;;;7.57;;
82030;SDS011;71592;52.178;4.512;2024-01-30T00:59:14;12.70;;;7.50;;
82030;SDS011;71592;52.178;4.512;2024-01-30T01:01:39;11.18;;;7.30;;
82030;SDS011;71592;52.178;4.512;2024-01-30T01:04:04;12.83;;;7.63;;
82030;SDS011;71592;52.178;4.512;2024-01-30T01:06:30;11.37;;;7.27;;
82030;SDS011;71592;52.178;4.512;2024-01-30T01:08:55;13.20;;;7.57;;
82030;SDS011;71592;52.178;4.512;2024-01-30T01:11:20;12.67;;;6.87;;
82030;SDS011;71592;52.178;4.512;2024-01-30T01:13:45;10.93;;;7.17;;
82030;SDS011;71592;52.178;4.512;2024-01-30T01:16:11;11.60;;;7.33;;
82030;SDS011;71592;52.178;4.512;2024-01-30T01:18:36;10.65;;;6.63;;
82030;SDS011;71592;52.178;4.512;2024-01-30T01:21:01;11.80;;;6.90;;
82030;SDS011;71592;52.178;4.512;2024-01-30T01:23:26;12.00;;;6.80;;
82030;SDS011;71592;52.178;4.512;2024-01-30T01:25:52;12.17;;;7.67;;
82030;SDS011;71592;52.178;4.512;2024-01-30T01:28:17;12.33;;;7.33;;
82030;SDS011;71592;52.178;4.512;2024-01-30T01:30:42;11.50;;;7.33;;
82030;SDS011;71592;52.178;4.512;2024-01-30T01:33:07;14.98;;;7.35;;
82030;SDS011;71592;52.178;4.512;2024-01-30T01:35:34;9.63;;;6.70;;
82030;SDS011;71592;52.178;4.512;2024-01-30T01:37:59;11.10;;;7.73;;
82030;SDS011;71592;52.178;4.512;2024-01-30T01:40:25;10.57;;;7.38;;
82030;SDS011;71592;52.178;4.512;2024-01-30T01:42:51;11.48;;;7.20;;
82030;SDS011;71592;52.178;4.512;2024-01-30T01:45:20;11.60;;;7.53;;
82030;SDS011;71592;52.178;4.512;2024-01-30T01:47:45;12.27;;;7.47;;
82030;SDS011;71592;52.178;4.512;2024-01-30T01:50:12;9.68;;;6.85;;
82030;SDS011;71592;52.178;4.512;2024-01-30T01:52:38;11.85;;;7.25;;
82030;SDS011;71592;52.178;4.512;2024-01-30T01:55:04;11.25;;;7.10;;
82030;SDS011;71592;52.178;4.512;2024-01-30T01:57:30;9.98;;;7.05;;
82030;SDS011;71592;52.178;4.512;2024-01-30T01:59:55;11.83;;;7.23;;
82030;SDS011;71592;52.178;4.512;2024-01-30T02:02:20;10.95;;;6.93;;
82030;SDS011;71592;52.178;4.512;2024-01-30T02:04:47;12.93;;;7.60;;
82030;SDS011;71592;52.178;4.512;2024-01-30T02:07:13;10.37;;;6.83;;
82030;SDS011;71592;52.178;4.512;2024-01-30T02:09:38;11.45;;;7.05;;
82030;SDS011;71592;52.178;4.512;2024-01-30T02:12:03;11.57;;;7.20;;
82030;SDS011;71592;52.178;4.512;2024-01-30T02:14:28;11.52;;;7.80;;
82030;SDS011;71592;52.178;4.512;2024-01-30T02:16:54;11.70;;;6.87;;
82030;SDS011;71592;52.178;4.512;2024-01-30T02:19:19;11.18;;;7.25;;
82030;SDS011;71592;52.178;4.512;2024-01-30T02:21:45;10.50;;;7.53;;
82030;SDS011;71592;52.178;4.512;2024-01-30T02:24:11;8.63;;;6.40;;
82030;SDS011;71592;52.178;4.512;2024-01-30T02:26:36;13.40;;;8.17;;
82030;SDS011;71592;52.178;4.512;2024-01-30T02:29:01;11.67;;;7.30;;
82030;SDS011;71592;52.178;4.512;2024-01-30T02:31:26;11.83;;;7.40;;
82030;SDS011;71592;52.178;4.512;2024-01-30T02:33:52;9.90;;;7.30;;
82030;SDS011;71592;52.178;4.512;2024-01-30T02:36:17;10.23;;;7.25;;
82030;SDS011;71592;52.178;4.512;2024-01-30T02:38:43;13.20;;;7.70;;
82030;SDS011;71592;52.178;4.512;2024-01-30T02:41:08;10.37;;;7.17;;
82030;SDS011;71592;52.178;4.512;2024-01-30T02:43:33;11.03;;;7.37;;
82030;SDS011;71592;52.178;4.512;2024-01-30T02:45:59;10.07;;;7.00;;
82030;SDS011;71592;52.178;4.512;2024-01-30T02:48:25;13.10;;;7.25;;
82030;SDS011;71592;52.178;4.512;2024-01-30T02:50:51;11.40;;;7.03;;
82030;SDS011;71592;52.178;4.512;2024-01-30T02:53:16;9.87;;;6.90;;
82030;SDS011;71592;52.178;4.512;2024-01-30T02:55:41;12.97;;;7.60;;
82030;SDS011;71592;52.178;4.512;2024-01-30T02:58:06;10.18;;;7.22;;
82030;SDS011;71592;52.178;4.512;2024-01-30T03:00:32;9.87;;;6.77;;
82030;SDS011;71592;52.178;4.512;2024-01-30T03:02:57;13.43;;;8.30;;
82030;SDS011;71592;52.178;4.512;2024-01-30T03:05:22;8.87;;;6.90;;
82030;SDS011;71592;52.178;4.512;2024-01-30T03:07:47;12.87;;;8.10;;
82030;SDS011;71592;52.178;4.512;2024-01-30T03:10:13;13.35;;;8.02;;
82030;SDS011;71592;52.178;4.512;2024-01-30T03:12:38;12.77;;;7.77;;
82030;SDS011;71592;52.178;4.512;2024-01-30T03:15:03;10.07;;;7.03;;
82030;SDS011;71592;52.178;4.512;2024-01-30T03:17:29;12.02;;;7.03;;
82030;SDS011;71592;52.178;4.512;2024-01-30T03:19:54;13.00;;;8.03;;
82030;SDS011;71592;52.178;4.512;2024-01-30T03:22:20;12.90;;;7.78;;
82030;SDS011;71592;52.178;4.512;2024-01-30T03:24:45;12.65;;;7.70;;
82030;SDS011;71592;52.178;4.512;2024-01-30T03:27:10;11.50;;;8.67;;
82030;SDS011;71592;52.178;4.512;2024-01-30T03:29:35;11.83;;;7.53;;
82030;SDS011;71592;52.178;4.512;2024-01-30T03:32:00;10.77;;;7.50;;
82030;SDS011;71592;52.178;4.512;2024-01-30T03:34:26;12.02;;;7.30;;
82030;SDS011;71592;52.178;4.512;2024-01-30T03:36:51;12.73;;;7.77;;
82030;SDS011;71592;52.178;4.512;2024-01-30T03:39:16;10.93;;;7.40;;
82030;SDS011;71592;52.178;4.512;2024-01-30T03:41:42;13.55;;;7.32;;
82030;SDS011;71592;52.178;4.512;2024-01-30T03:44:08;10.38;;;7.07;;
82030;SDS011;71592;52.178;4.512;2024-01-30T03:46:33;11.25;;;7.45;;
82030;SDS011;71592;52.178;4.512;2024-01-30T03:48:59;11.73;;;7.43;;
82030;SDS011;71592;52.178;4.512;2024-01-30T03:51:24;12.07;;;7.40;;
82030;SDS011;71592;52.178;4.512;2024-01-30T03:53:50;10.88;;;7.68;;
82030;SDS011;71592;52.178;4.512;2024-01-30T03:56:15;10.83;;;7.13;;
82030;SDS011;71592;52.178;4.512;2024-01-30T03:58:40;11.07;;;7.05;;
82030;SDS011;71592;52.178;4.512;2024-01-30T04:01:06;10.02;;;7.00;;
82030;SDS011;71592;52.178;4.512;2024-01-30T04:03:31;11.53;;;7.33;;
82030;SDS011;71592;52.178;4.512;2024-01-30T04:05:56;11.60;;;7.23;;
82030;SDS011;71592;52.178;4.512;2024-01-30T04:08:22;10.07;;;6.83;;
82030;SDS011;71592;52.178;4.512;2024-01-30T04:10:47;9.87;;;7.63;;
82030;SDS011;71592;52.178;4.512;2024-01-30T04:13:12;11.87;;;7.57;;
82030;SDS011;71592;52.178;4.512;2024-01-30T04:15:38;12.02;;;6.70;;
82030;SDS011;71592;52.178;4.512;2024-01-30T04:18:03;11.13;;;6.57;;
82030;SDS011;71592;52.178;4.512;2024-01-30T04:20:29;11.05;;;7.47;;
82030;SDS011;71592;52.178;4.512;2024-01-30T04:22:54;10.98;;;8.13;;
82030;SDS011;71592;52.178;4.512;2024-01-30T04:25:19;10.85;;;7.00;;
82030;SDS011;71592;52.178;4.512;2024-01-30T04:27:45;11.73;;;7.70;;
82030;SDS011;71592;52.178;4.512;2024-01-30T04:30:10;12.83;;;8.87;;
82030;SDS011;71592;52.178;4.512;2024-01-30T04:32:35;11.95;;;6.85;;
82030;SDS011;71592;52.178;4.512;2024-01-30T04:35:01;11.73;;;7.00;;
82030;SDS011;71592;52.178;4.512;2024-01-30T04:37:26;9.25;;;6.75;;
82030;SDS011;71592;52.178;4.512;2024-01-30T04:39:51;10.53;;;7.10;;
82030;SDS011;71592;52.178;4.512;2024-01-30T04:42:17;12.10;;;6.57;;
82030;SDS011;71592;52.178;4.512;2024-01-30T04:44:42;11.38;;;7.15;;
82030;SDS011;71592;52.178;4.512;2024-01-30T04:47:07;13.13;;;6.53;;
82030;SDS011;71592;52.178;4.512;2024-01-30T04:49:34;8.68;;;6.47;;
82030;SDS011;71592;52.178;4.512;2024-01-30T04:51:59;10.00;;;7.22;;
82030;SDS011;71592;52.178;4.512;2024-01-30T04:54:24;10.03;;;6.27;;
82030;SDS011;71592;52.178;4.512;2024-01-30T04:56:50;10.82;;;7.57;;
82030;SDS011;71592;52.178;4.512;2024-01-30T04:59:16;10.77;;;6.70;;
82030;SDS011;71592;52.178;4.512;2024-01-30T05:01:41;11.67;;;6.93;;
82030;SDS011;71592;52.178;4.512;2024-01-30T05:04:09;11.33;;;6.47;;
82030;SDS011;71592;52.178;4.512;2024-01-30T05:06:34;8.90;;;6.57;;
82030;SDS011;71592;52.178;4.512;2024-01-30T05:09:00;9.87;;;6.77;;
82030;SDS011;71592;52.178;4.512;2024-01-30T05:11:25;9.38;;;6.43;;
82030;SDS011;71592;52.178;4.512;2024-01-30T05:13:50;8.53;;;6.30;;
82030;SDS011;71592;52.178;4.512;2024-01-30T05:16:16;10.40;;;6.90;;
82030;SDS011;71592;52.178;4.512;2024-01-30T05:18:41;10.17;;;7.07;;
82030;SDS011;71592;52.178;4.512;2024-01-30T05:21:06;11.47;;;6.87;;
82030;SDS011;71592;52.178;4.512;2024-01-30T05:23:31;9.47;;;6.30;;
82030;SDS011;71592;52.178;4.512;2024-01-30T05:25:57;11.67;;;6.43;;
82030;SDS011;71592;52.178;4.512;2024-01-30T05:28:22;10.20;;;7.33;;
82030;SDS011;71592;52.178;4.512;2024-01-30T05:30:47;12.05;;;6.57;;
82030;SDS011;71592;52.178;4.512;2024-01-30T05:33:13;10.70;;;6.95;;
82030;SDS011;71592;52.178;4.512;2024-01-30T05:35:38;10.63;;;6.55;;
82030;SDS011;71592;52.178;4.512;2024-01-30T05:38:03;13.67;;;6.40;;
82030;SDS011;71592;52.178;4.512;2024-01-30T05:40:29;13.35;;;7.45;;
82030;SDS011;71592;52.178;4.512;2024-01-30T05:42:54;13.20;;;6.57;;
82030;SDS011;71592;52.178;4.512;2024-01-30T05:45:20;13.30;;;6.77;;
82030;SDS011;71592;52.178;4.512;2024-01-30T05:47:45;13.95;;;6.57;;
82030;SDS011;71592;52.178;4.512;2024-01-30T05:50:10;9.97;;;6.93;;
82030;SDS011;71592;52.178;4.512;2024-01-30T05:52:36;11.73;;;6.43;;
82030;SDS011;71592;52.178;4.512;2024-01-30T05:55:01;10.17;;;6.83;;
82030;SDS011;71592;52.178;4.512;2024-01-30T05:57:28;10.45;;;6.32;;
82030;SDS011;71592;52.178;4.512;2024-01-30T05:59:53;11.60;;;6.57;;
82030;SDS011;71592;52.178;4.512;2024-01-30T06:02:21;12.03;;;6.20;;
82030;SDS011;71592;52.178;4.512;2024-01-30T06:04:46;10.88;;;6.43;;
82030;SDS011;71592;52.178;4.512;2024-01-30T06:07:12;8.98;;;6.25;;
82030;SDS011;71592;52.178;4.512;2024-01-30T06:09:37;10.27;;;6.37;;
82030;SDS011;71592;52.178;4.512;2024-01-30T06:12:03;12.65;;;7.20;;
82030;SDS011;71592;52.178;4.512;2024-01-30T06:14:30;9.63;;;6.80;;
82030;SDS011;71592;52.178;4.512;2024-01-30T06:16:55;11.30;;;6.47;;
82030;SDS011;71592;52.178;4.512;2024-01-30T06:19:21;10.63;;;6.77;;
82030;SDS011;71592;52.178;4.512;2024-01-30T06:21:46;11.93;;;7.30;;
82030;SDS011;71592;52.178;4.512;2024-01-30T06:24:11;10.25;;;6.65;;
82030;SDS011;71592;52.178;4.512;2024-01-30T06:26:36;10.83;;;6.67;;
82030;SDS011;71592;52.178;4.512;2024-01-30T06:29:02;13.20;;;7.57;;
82030;SDS011;71592;52.178;4.512;2024-01-30T06:31:27;9.82;;;5.70;;
82030;SDS011;71592;52.178;4.512;2024-01-30T06:33:52;9.80;;;6.67;;
82030;SDS011;71592;52.178;4.512;2024-01-30T06:36:18;12.63;;;6.72;;
82030;SDS011;71592;52.178;4.512;2024-01-30T06:38:44;8.93;;;6.47;;
82030;SDS011;71592;52.178;4.512;2024-01-30T06:41:09;12.60;;;6.77;;
82030;SDS011;71592;52.178;4.512;2024-01-30T06:43:34;10.93;;;6.47;;
82030;SDS011;71592;52.178;4.512;2024-01-30T06:45:59;14.93;;;6.03;;
82030;SDS011;71592;52.178;4.512;2024-01-30T06:48:25;13.67;;;6.97;;
82030;SDS011;71592;52.178;4.512;2024-01-30T06:50:52;11.27;;;6.63;;
82030;SDS011;71592;52.178;4.512;2024-01-30T06:53:19;12.90;;;6.97;;
82030;SDS011;71592;52.178;4.512;2024-01-30T06:55:44;10.00;;;6.32;;
82030;SDS011;71592;52.178;4.512;2024-01-30T06:58:10;10.38;;;6.80;;
82030;SDS011;71592;52.178;4.512;2024-01-30T07:00:36;10.02;;;6.60;;
82030;SDS011;71592;52.178;4.512;2024-01-30T07:03:01;14.23;;;7.40;;
82030;SDS011;71592;52.178;4.512;2024-01-30T07:05:26;9.32;;;6.97;;
82030;SDS011;71592;52.178;4.512;2024-01-30T07:07:52;13.93;;;6.50;;
82030;SDS011;71592;52.178;4.512;2024-01-30T07:10:17;13.77;;;6.63;;
82030;SDS011;71592;52.178;4.512;2024-01-30T07:12:42;11.88;;;6.68;;
82030;SDS011;71592;52.178;4.512;2024-01-30T07:15:08;9.77;;;6.10;;
82030;SDS011;71592;52.178;4.512;2024-01-30T07:17:34;9.65;;;6.07;;
82030;SDS011;71592;52.178;4.512;2024-01-30T07:20:02;12.02;;;6.60;;
82030;SDS011;71592;52.178;4.512;2024-01-30T07:22:28;11.25;;;6.53;;
82030;SDS011;71592;52.178;4.512;2024-01-30T07:24:54;10.93;;;6.22;;
82030;SDS011;71592;52.178;4.512;2024-01-30T07:27:19;10.15;;;5.88;;
82030;SDS011;71592;52.178;4.512;2024-01-30T07:29:46;9.57;;;6.15;;
82030;SDS011;71592;52.178;4.512;2024-01-30T07:32:12;10.38;;;6.10;;
82030;SDS011;71592;52.178;4.512;2024-01-30T07:34:37;11.70;;;6.43;;
82030;SDS011;71592;52.178;4.512;2024-01-30T07:37:02;14.97;;;6.47;;
82030;SDS011;71592;52.178;4.512;2024-01-30T07:39:28;10.57;;;5.75;;
82030;SDS011;71592;52.178;4.512;2024-01-30T07:41:53;12.00;;;6.93;;
82030;SDS011;71592;52.178;4.512;2024-01-30T07:44:21;10.27;;;6.20;;
82030;SDS011;71592;52.178;4.512;2024-01-30T07:46:47;11.15;;;6.38;;
82030;SDS011;71592;52.178;4.512;2024-01-30T07:49:12;11.98;;;6.05;;
82030;SDS011;71592;52.178;4.512;2024-01-30T07:51:39;17.27;;;7.15;;
82030;SDS011;71592;52.178;4.512;2024-01-30T07:54:13;9.48;;;6.13;;
82030;SDS011;71592;52.178;4.512;2024-01-30T07:56:39;14.02;;;6.93;;
82030;SDS011;71592;52.178;4.512;2024-01-30T07:59:04;14.60;;;6.87;;
82030;SDS011;71592;52.178;4.512;2024-01-30T08:01:29;11.53;;;6.40;;
82030;SDS011;71592;52.178;4.512;2024-01-30T08:03:55;11.30;;;6.63;;
82030;SDS011;71592;52.178;4.512;2024-01-30T08:06:20;11.27;;;6.57;;
82030;SDS011;71592;52.178;4.512;2024-01-30T08:08:45;10.63;;;6.32;;
82030;SDS011;71592;52.178;4.512;2024-01-30T08:11:11;10.23;;;6.72;;
82030;SDS011;71592;52.178;4.512;2024-01-30T08:13:37;9.65;;;6.65;;
82030;SDS011;71592;52.178;4.512;2024-01-30T08:16:02;12.47;;;6.63;;
82030;SDS011;71592;52.178;4.512;2024-01-30T08:18:27;10.35;;;6.28;;
82030;SDS011;71592;52.178;4.512;2024-01-30T08:20:52;9.43;;;6.07;;
82030;SDS011;71592;52.178;4.512;2024-01-30T08:23:18;13.40;;;7.13;;
82030;SDS011;71592;52.178;4.512;2024-01-30T08:25:46;15.93;;;7.45;;
82030;SDS011;71592;52.178;4.512;2024-01-30T08:28:11;9.98;;;6.00;;
82030;SDS011;71592;52.178;4.512;2024-01-30T08:30:36;14.40;;;7.33;;
82030;SDS011;71592;52.178;4.512;2024-01-30T08:33:04;14.00;;;7.35;;
82030;SDS011;71592;52.178;4.512;2024-01-30T08:35:29;10.07;;;7.13;;
82030;SDS011;71592;52.178;4.512;2024-01-30T08:37:56;14.70;;;7.43;;
82030;SDS011;71592;52.178;4.512;2024-01-30T08:40:21;10.00;;;7.13;;
82030;SDS011;71592;52.178;4.512;2024-01-30T08:42:47;12.90;;;7.53;;
82030;SDS011;71592;52.178;4.512;2024-01-30T08:45:12;11.03;;;6.73;;
82030;SDS011;71592;52.178;4.512;2024-01-30T08:47:37;11.85;;;7.55;;
82030;SDS011;71592;52.178;4.512;2024-01-30T08:50:03;9.57;;;7.53;;
82030;SDS011;71592;52.178;4.512;2024-01-30T08:52:29;11.98;;;7.13;;
82030;SDS011;71592;52.178;4.512;2024-01-30T08:54:54;10.30;;;6.80;;
82030;SDS011;71592;52.178;4.512;2024-01-30T08:57:19;10.80;;;7.47;;
82030;SDS011;71592;52.178;4.512;2024-01-30T08:59:44;13.38;;;6.85;;
82030;SDS011;71592;52.178;4.512;2024-01-30T09:02:11;13.27;;;7.55;;
82030;SDS011;71592;52.178;4.512;2024-01-30T09:04:38;12.13;;;7.78;;
82030;SDS011;71592;52.178;4.512;2024-01-30T09:07:03;13.57;;;8.02;;
82030;SDS011;71592;52.178;4.512;2024-01-30T09:09:31;12.68;;;7.95;;
82030;SDS011;71592;52.178;4.512;2024-01-30T09:11:56;13.82;;;8.40;;
82030;SDS011;71592;52.178;4.512;2024-01-30T09:14:23;10.38;;;7.80;;
82030;SDS011;71592;52.178;4.512;2024-01-30T09:16:48;14.60;;;8.67;;
82030;SDS011;71592;52.178;4.512;2024-01-30T09:19:14;16.85;;;8.63;;
82030;SDS011;71592;52.178;4.512;2024-01-30T09:21:39;15.83;;;7.30;;
82030;SDS011;71592;52.178;4.512;2024-01-30T09:24:04;9.67;;;6.33;;
82030;SDS011;71592;52.178;4.512;2024-01-30T09:26:30;10.27;;;4.60;;
82030;SDS011;71592;52.178;4.512;2024-01-30T09:28:55;10.10;;;4.30;;
82030;SDS011;71592;52.178;4.512;2024-01-30T09:31:20;8.63;;;4.50;;
82030;SDS011;71592;52.178;4.512;2024-01-30T09:33:45;7.13;;;3.30;;
82030;SDS011;71592;52.178;4.512;2024-01-30T09:36:13;9.32;;;3.30;;
82030;SDS011;71592;52.178;4.512;2024-01-30T09:38:40;8.45;;;3.85;;
82030;SDS011;71592;52.178;4.512;2024-01-30T09:41:06;8.43;;;3.45;;
82030;SDS011;71592;52.178;4.512;2024-01-30T09:43:34;5.18;;;2.90;;
82030;SDS011;71592;52.178;4.512;2024-01-30T09:46:00;8.60;;;2.60;;
82030;SDS011;71592;52.178;4.512;2024-01-30T09:48:27;3.97;;;2.28;;
82030;SDS011;71592;52.178;4.512;2024-01-30T09:50:53;3.40;;;1.98;;
82030;SDS011;71592;52.178;4.512;2024-01-30T09:53:19;7.43;;;2.33;;
82030;SDS011;71592;52.178;4.512;2024-01-30T09:55:44;6.32;;;2.28;;
82030;SDS011;71592;52.178;4.512;2024-01-30T09:58:11;5.60;;;2.00;;
82030;SDS011;71592;52.178;4.512;2024-01-30T10:00:36;4.03;;;1.70;;
82030;SDS011;71592;52.178;4.512;2024-01-30T10:03:02;5.73;;;1.80;;
82030;SDS011;71592;52.178;4.512;2024-01-30T10:05:27;6.13;;;2.28;;
82030;SDS011;71592;52.178;4.512;2024-01-30T10:07:53;2.35;;;1.33;;
82030;SDS011;71592;52.178;4.512;2024-01-30T10:10:21;3.30;;;1.23;;
82030;SDS011;71592;52.178;4.512;2024-01-30T10:12:46;3.10;;;1.50;;
82030;SDS011;71592;52.178;4.512;2024-01-30T10:15:12;3.22;;;1.50;;
82030;SDS011;71592;52.178;4.512;2024-01-30T10:17:38;6.65;;;1.70;;
82030;SDS011;71592;52.178;4.512;2024-01-30T10:20:06;3.30;;;1.20;;
82030;SDS011;71592;52.178;4.512;2024-01-30T10:22:32;1.00;;;0.82;;
82030;SDS011;71592;52.178;4.512;2024-01-30T10:24:58;4.68;;;1.80;;
82030;SDS011;71592;52.178;4.512;2024-01-30T10:27:25;3.33;;;1.30;;
82030;SDS011;71592;52.178;4.512;2024-01-30T10:29:50;2.92;;;1.17;;
82030;SDS011;71592;52.178;4.512;2024-01-30T10:32:15;1.57;;;1.17;;
82030;SDS011;71592;52.178;4.512;2024-01-30T10:34:41;1.63;;;1.05;;
82030;SDS011;71592;52.178;4.512;2024-01-30T10:39:32;4.68;;;1.50;;
82030;SDS011;71592;52.178;4.512;2024-01-30T10:42:03;4.15;;;1.40;;
82030;SDS011;71592;52.178;4.512;2024-01-30T10:44:29;3.58;;;1.40;;
82030;SDS011;71592;52.178;4.512;2024-01-30T10:46:56;3.58;;;1.52;;
82030;SDS011;71592;52.178;4.512;2024-01-30T10:49:25;5.85;;;1.45;;
82030;SDS011;71592;52.178;4.512;2024-01-30T10:51:51;5.53;;;1.60;;
82030;SDS011;71592;52.178;4.512;2024-01-30T10:54:17;6.25;;;2.05;;
82030;SDS011;71592;52.178;4.512;2024-01-30T10:56:43;6.30;;;2.20;;
82030;SDS011;71592;52.178;4.512;2024-01-30T10:59:09;5.57;;;1.63;;
82030;SDS011;71592;52.178;4.512;2024-01-30T11:01:35;4.07;;;1.42;;
82030;SDS011;71592;52.178;4.512;2024-01-30T11:04:00;4.15;;;1.25;;
82030;SDS011;71592;52.178;4.512;2024-01-30T11:06:25;3.53;;;1.50;;
82030;SDS011;71592;52.178;4.512;2024-01-30T11:09:03;5.17;;;1.90;;
82030;SDS011;71592;52.178;4.512;2024-01-30T11:11:32;3.42;;;1.60;;
82030;SDS011;71592;52.178;4.512;2024-01-30T11:14:00;2.90;;;1.40;;
82030;SDS011;71592;52.178;4.512;2024-01-30T11:16:30;6.35;;;1.63;;
82030;SDS011;71592;52.178;4.512;2024-01-30T11:18:59;3.65;;;1.75;;
82030;SDS011;71592;52.178;4.512;2024-01-30T11:21:25;6.30;;;1.70;;
82030;SDS011;71592;52.178;4.512;2024-01-30T11:23:50;4.37;;;1.70;;
82030;SDS011;71592;52.178;4.512;2024-01-30T11:26:16;3.40;;;1.47;;
82030;SDS011;71592;52.178;4.512;2024-01-30T11:28:41;3.72;;;1.85;;
82030;SDS011;71592;52.178;4.512;2024-01-30T11:31:07;6.80;;;1.90;;
82030;SDS011;71592;52.178;4.512;2024-01-30T11:33:32;5.15;;;1.73;;
82030;SDS011;71592;52.178;4.512;2024-01-30T11:35:59;7.57;;;1.92;;
82030;SDS011;71592;52.178;4.512;2024-01-30T11:38:25;3.38;;;1.45;;
82030;SDS011;71592;52.178;4.512;2024-01-30T11:40:50;5.38;;;1.95;;
82030;SDS011;71592;52.178;4.512;2024-01-30T11:43:16;5.97;;;2.03;;
82030;SDS011;71592;52.178;4.512;2024-01-30T11:45:42;5.18;;;1.67;;
82030;SDS011;71592;52.178;4.512;2024-01-30T11:48:08;7.97;;;1.58;;
82030;SDS011;71592;52.178;4.512;2024-01-30T11:50:35;10.80;;;1.90;;
82030;SDS011;71592;52.178;4.512;2024-01-30T11:53:03;7.78;;;1.90;;
82030;SDS011;71592;52.178;4.512;2024-01-30T11:55:29;4.53;;;1.95;;
82030;SDS011;71592;52.178;4.512;2024-01-30T11:57:55;7.95;;;1.67;;
82030;SDS011;71592;52.178;4.512;2024-01-30T12:00:21;5.70;;;1.80;;
82030;SDS011;71592;52.178;4.512;2024-01-30T12:02:49;6.38;;;2.40;;
82030;SDS011;71592;52.178;4.512;2024-01-30T12:05:15;7.20;;;1.80;;
82030;SDS011;71592;52.178;4.512;2024-01-30T12:07:43;4.50;;;1.88;;
82030;SDS011;71592;52.178;4.512;2024-01-30T12:10:09;4.28;;;1.67;;
82030;SDS011;71592;52.178;4.512;2024-01-30T12:12:34;4.55;;;1.95;;
82030;SDS011;71592;52.178;4.512;2024-01-30T12:15:00;5.38;;;1.95;;
82030;SDS011;71592;52.178;4.512;2024-01-30T12:17:29;7.32;;;2.20;;
82030;SDS011;71592;52.178;4.512;2024-01-30T12:20:04;6.63;;;2.20;;
82030;SDS011;71592;52.178;4.512;2024-01-30T12:22:31;4.72;;;2.13;;
82030;SDS011;71592;52.178;4.512;2024-01-30T12:24:57;3.38;;;1.70;;
82030;SDS011;71592;52.178;4.512;2024-01-30T12:27:22;5.82;;;2.60;;
82030;SDS011;71592;52.178;4.512;2024-01-30T12:29:48;6.15;;;1.63;;
82030;SDS011;71592;52.178;4.512;2024-01-30T12:32:15;5.88;;;1.70;;
82030;SDS011;71592;52.178;4.512;2024-01-30T12:34:41;4.65;;;2.00;;
82030;SDS011;71592;52.178;4.512;2024-01-30T12:37:06;5.43;;;2.03;;
82030;SDS011;71592;52.178;4.512;2024-01-30T12:39:34;5.13;;;2.10;;
82030;SDS011;71592;52.178;4.512;2024-01-30T12:41:59;5.88;;;2.10;;
82030;SDS011;71592;52.178;4.512;2024-01-30T12:44:25;6.68;;;2.13;;
82030;SDS011;71592;52.178;4.512;2024-01-30T12:46:50;5.47;;;1.95;;
82030;SDS011;71592;52.178;4.512;2024-01-30T12:49:16;3.63;;;1.90;;
82030;SDS011;71592;52.178;4.512;2024-01-30T12:51:41;5.97;;;2.07;;
82030;SDS011;71592;52.178;4.512;2024-01-30T12:54:06;3.83;;;1.60;;
82030;SDS011;71592;52.178;4.512;2024-01-30T12:56:32;4.55;;;2.00;;
82030;SDS011;71592;52.178;4.512;2024-01-30T12:58:57;8.23;;;2.30;;
82030;SDS011;71592;52.178;4.512;2024-01-30T13:01:22;6.17;;;2.07;;
82030;SDS011;71592;52.178;4.512;2024-01-30T13:03:48;5.30;;;2.00;;
82030;SDS011;71592;52.178;4.512;2024-01-30T13:06:13;7.90;;;2.42;;
82030;SDS011;71592;52.178;4.512;2024-01-30T13:08:38;5.03;;;2.83;;
82030;SDS011;71592;52.178;4.512;2024-01-30T13:11:04;5.27;;;2.20;;
82030;SDS011;71592;52.178;4.512;2024-01-30T13:13:29;4.45;;;2.78;;
82030;SDS011;71592;52.178;4.512;2024-01-30T13:15:54;4.97;;;2.20;;
82030;SDS011;71592;52.178;4.512;2024-01-30T13:18:20;4.40;;;2.45;;
82030;SDS011;71592;52.178;4.512;2024-01-30T13:20:45;6.35;;;2.33;;
82030;SDS011;71592;52.178;4.512;2024-01-30T13:23:10;4.40;;;2.00;;
82030;SDS011;71592;52.178;4.512;2024-01-30T13:25:36;7.27;;;2.50;;
82030;SDS011;71592;52.178;4.512;2024-01-30T13:28:01;5.63;;;2.80;;
82030;SDS011;71592;52.178;4.512;2024-01-30T13:30:26;6.43;;;2.33;;
82030;SDS011;71592;52.178;4.512;2024-01-30T13:32:51;5.17;;;2.73;;
82030;SDS011;71592;52.178;4.512;2024-01-30T13:35:17;5.83;;;2.60;;
82030;SDS011;71592;52.178;4.512;2024-01-30T13:37:42;5.00;;;2.50;;
82030;SDS011;71592;52.178;4.512;2024-01-30T13:40:08;6.20;;;2.47;;
82030;SDS011;71592;52.178;4.512;2024-01-30T13:42:36;5.40;;;2.42;;
82030;SDS011;71592;52.178;4.512;2024-01-30T13:45:02;4.38;;;2.60;;
82030;SDS011;71592;52.178;4.512;2024-01-30T13:47:27;5.93;;;2.75;;
82030;SDS011;71592;52.178;4.512;2024-01-30T13:49:52;4.33;;;2.20;;
82030;SDS011;71592;52.178;4.512;2024-01-30T13:52:18;5.73;;;2.70;;
82030;SDS011;71592;52.178;4.512;2024-01-30T13:54:43;6.85;;;3.15;;
82030;SDS011;71592;52.178;4.512;2024-01-30T13:57:08;5.87;;;2.83;;
82030;SDS011;71592;52.178;4.512;2024-01-30T13:59:34;6.68;;;3.00;;
82030;SDS011;71592;52.178;4.512;2024-01-30T14:01:59;6.63;;;3.20;;
82030;SDS011;71592;52.178;4.512;2024-01-30T14:04:24;7.07;;;3.10;;
82030;SDS011;71592;52.178;4.512;2024-01-30T14:06:50;8.87;;;2.50;;
82030;SDS011;71592;52.178;4.512;2024-01-30T14:09:15;4.83;;;2.80;;
82030;SDS011;71592;52.178;4.512;2024-01-30T14:11:41;4.25;;;2.42;;
82030;SDS011;71592;52.178;4.512;2024-01-30T14:14:06;6.90;;;2.40;;
82030;SDS011;71592;52.178;4.512;2024-01-30T14:16:32;4.30;;;2.23;;
82030;SDS011;71592;52.178;4.512;2024-01-30T14:18:57;6.27;;;2.60;;
82030;SDS011;71592;52.178;4.512;2024-01-30T14:21:22;5.57;;;2.83;;
82030;SDS011;71592;52.178;4.512;2024-01-30T14:23:49;4.30;;;2.60;;
82030;SDS011;71592;52.178;4.512;2024-01-30T14:26:14;5.28;;;2.38;;
82030;SDS011;71592;52.178;4.512;2024-01-30T14:28:40;4.75;;;2.60;;
82030;SDS011;71592;52.178;4.512;2024-01-30T14:31:05;3.50;;;2.37;;
82030;SDS011;71592;52.178;4.512;2024-01-30T14:33:30;6.53;;;2.50;;